Time;durP1;ratioP1;P1;durP2;ratioP2;P2;SDS_P1;SDS_P2;PMS_P1;PMS_P2;Temp;Humidity;BMP_temperature;BMP_pressure;BME280_temperature;BME280_humidity;BME280_pressure;Samples;Min_cycle;Max_cycle;Signal;HPM_P1;HPM_P2
2022/12/08 00:02:05;;;;;;;;;;;;;;;-9.72;73.32;100354.19;5104385;28;19928;-65
2022/12/08 00:09:20;;;;;;;;;;;;;;;-9.70;73.40;100343.47;5101578;28;19928;-65
2022/12/08 00:10:02;;;;;;;;;;;;;;;-9.64;72.96;100337.66;5106148;28;20429;-65
2022/12/08 00:12:29;;;;;;;;;;;;;;;-9.62;73.01;100334.88;5103791;28;20378;-65
2022/12/08 00:14:54;;;;;;;;;;;;;;;-9.63;73.14;100334.03;5091700;28;19928;-68
2022/12/08 00:17:20;;;;;;;;;;;;;;;-9.64;72.90;100335.00;5086053;28;20289;-68
2022/12/08 00:19:49;;;;;;;;;;;;;;;-9.63;73.12;100336.69;5104664;28;19938;-68
2022/12/08 00:22:14;;;;;;;;;;;;;;;-9.67;73.54;100314.09;5106948;27;19935;-68
2022/12/08 00:24:42;;;;;;;;;;;;;;;-9.66;73.58;100317.56;5102848;28;20326;-68
2022/12/08 00:27:09;;;;;;;;;;;;;;;-9.69;73.42;100300.97;5103716;28;19935;-69
2022/12/08 00:29:35;;;;;;;;;;;;;;;-9.68;73.78;100304.44;5085214;28;19928;-68
2022/12/08 00:32:01;;;;;;;;;;;;;;;-9.64;73.45;100299.75;5104316;28;19938;-67
2022/12/08 00:34:27;;;;;;;;;;;;;;;-9.61;73.49;100302.13;5094497;28;19932;-65
2022/12/08 00:36:54;;;;;;;;;;;;;;;-9.61;73.21;100302.97;5078506;28;20406;-68
2022/12/08 00:39:20;;;;;;;;;;;;;;;-9.61;72.95;100294.19;5047050;28;19986;-68
2022/12/08 00:44:30;;;;;;;;;;;;;;;-9.58;72.92;100300.06;5082959;28;19994;-69
2022/12/08 00:46:55;;;;;;;;;;;;;;;-9.56;72.95;100290.16;5085770;28;19963;-68
2022/12/08 00:49:21;;;;;;;;;;;;;;;-9.51;72.62;100302.19;5065382;28;20320;-68
2022/12/08 00:51:47;;;;;;;;;;;;;;;-9.49;72.44;100294.97;5084886;28;19939;-69
2022/12/08 00:54:14;;;;;;;;;;;;;;;-9.46;72.70;100294.69;5083478;28;19935;-69
2022/12/08 00:56:40;;;;;;;;;;;;;;;-9.44;72.53;100293.59;5081919;28;20399;-68
2022/12/08 00:59:06;;;;;;;;;;;;;;;-9.48;72.47;100293.97;5084497;28;20249;-69
2022/12/08 01:01:31;;;;;;;;;;;;;;;-9.53;72.13;100299.66;5085110;28;19927;-68
2022/12/08 01:03:57;;;;;;;;;;;;;;;-9.56;72.46;100306.06;5082918;28;19982;-68
2022/12/08 01:06:23;;;;;;;;;;;;;;;-9.62;72.55;100305.75;5083587;28;19928;-68
2022/12/08 01:08:48;;;;;;;;;;;;;;;-9.63;72.89;100299.63;5082664;28;19932;-68
2022/12/08 01:11:16;;;;;;;;;;;;;;;-9.67;72.61;100282.34;5088138;28;19927;-68
2022/12/08 01:13:42;;;;;;;;;;;;;;;-9.56;72.65;100292.81;5081170;28;19967;-68
2022/12/08 01:16:08;;;;;;;;;;;;;;;-9.57;72.59;100299.09;5083722;28;19928;-68
2022/12/08 01:18:34;;;;;;;;;;;;;;;-9.64;72.96;100303.25;5083812;28;20227;-68
2022/12/08 01:21:01;;;;;;;;;;;;;;;-9.63;73.19;100293.47;5085268;28;19935;-68
2022/12/08 01:23:27;;;;;;;;;;;;;;;-9.56;73.47;100303.41;5095671;28;20317;-69
2022/12/08 01:25:52;;;;;;;;;;;;;;;-9.56;72.96;100303.41;5087465;28;19928;-68
2022/12/08 01:28:20;;;;;;;;;;;;;;;-9.51;73.09;100305.66;5085029;28;19963;-68
2022/12/08 01:30:45;;;;;;;;;;;;;;;-9.50;73.02;100304.69;5081843;28;19936;-68
2022/12/08 01:33:11;;;;;;;;;;;;;;;-9.48;72.68;100300.09;5082972;28;19981;-68
2022/12/08 01:35:39;;;;;;;;;;;;;;;-9.51;72.61;100294.25;5094970;28;19942;-68
2022/12/08 01:38:04;;;;;;;;;;;;;;;-9.49;73.00;100305.56;5101157;28;19932;-68
2022/12/08 01:40:30;;;;;;;;;;;;;;;-9.54;72.83;100293.53;5103056;28;19973;-69
2022/12/08 01:42:56;;;;;;;;;;;;;;;-9.63;73.41;100294.34;5100640;28;19934;-68
2022/12/08 01:45:24;;;;;;;;;;;;;;;-9.68;73.77;100277.97;5101088;28;19928;-68
2022/12/08 01:47:51;;;;;;;;;;;;;;;-9.71;74.45;100294.97;5101252;28;20026;-68
2022/12/08 01:50:17;;;;;;;;;;;;;;;-9.70;74.45;100291.38;5101167;28;19928;-68
2022/12/08 01:52:45;;;;;;;;;;;;;;;-9.70;74.88;100280.78;5102552;28;20172;-68
2022/12/08 01:55:14;;;;;;;;;;;;;;;-9.68;75.18;100284.13;5103272;28;19928;-68
2022/12/08 01:57:42;;;;;;;;;;;;;;;-9.63;74.94;100293.47;5103925;28;19927;-67
2022/12/08 02:00:09;;;;;;;;;;;;;;;-9.68;75.02;100300.00;5084412;28;20008;-68
2022/12/08 02:02:38;;;;;;;;;;;;;;;-9.66;74.73;100297.25;5102651;28;19927;-68
2022/12/08 02:05:05;;;;;;;;;;;;;;;-9.64;74.90;100303.25;5090478;28;19928;-68
2022/12/08 02:07:30;;;;;;;;;;;;;;;-9.64;74.86;100305.91;5071355;28;19974;-68
2022/12/08 02:09:56;;;;;;;;;;;;;;;-9.65;75.27;100288.34;5061901;28;19959;-68
2022/12/08 02:12:22;;;;;;;;;;;;;;;-9.65;75.13;100298.06;5062646;28;19956;-67
2022/12/08 02:15:08;;;;;;;;;;;;;;;-9.68;75.76;100294.72;5051118;28;19955;-68
2022/12/08 02:17:43;;;;;;;;;;;;;;;-9.66;75.37;100291.09;5081240;28;19985;-68
2022/12/08 02:20:29;;;;;;;;;;;;;;;-9.66;74.99;100288.44;5081861;28;20284;-69
2022/12/08 02:22:59;;;;;;;;;;;;;;;-9.70;75.04;100285.22;5082421;28;19928;-68
2022/12/08 02:25:30;;;;;;;;;;;;;;;-9.68;74.89;100273.53;5084660;28;19928;-68
2022/12/08 02:28:01;;;;;;;;;;;;;;;-9.71;74.62;100276.44;5081820;28;20399;-69
2022/12/08 02:30:32;;;;;;;;;;;;;;;-9.74;75.21;100281.16;5080993;28;20027;-68
2022/12/08 02:33:12;;;;;;;;;;;;;;;-9.71;75.32;100273.81;5081989;28;19932;-68
2022/12/08 02:35:42;;;;;;;;;;;;;;;-9.68;75.40;100270.88;5083172;28;19932;-68
2022/12/08 02:38:13;;;;;;;;;;;;;;;-9.64;75.32;100268.81;5082003;28;19928;-69
2022/12/08 02:40:46;;;;;;;;;;;;;;;-9.63;75.12;100264.34;5083468;28;19975;-68
2022/12/08 02:43:15;;;;;;;;;;;;;;;-9.64;74.97;100263.53;5082147;28;20360;-68
2022/12/08 02:45:44;;;;;;;;;;;;;;;-9.62;76.10;100250.13;5079778;28;19928;-69
2022/12/08 02:48:10;;;;;;;;;;;;;;;-9.65;75.70;100253.06;5081477;28;20213;-68
2022/12/08 02:50:35;;;;;;;;;;;;;;;-9.71;75.47;100257.91;5082178;28;20134;-68
2022/12/08 02:53:03;;;;;;;;;;;;;;;-9.77;75.43;100247.00;5082118;28;19928;-68
2022/12/08 02:55:32;;;;;;;;;;;;;;;-9.78;75.44;100253.28;5082302;28;19971;-69
2022/12/08 02:58:08;;;;;;;;;;;;;;;-9.72;75.32;100252.75;5083433;28;19972;-68
2022/12/08 03:00:38;;;;;;;;;;;;;;;-9.77;74.69;100255.78;5080370;28;19928;-68
2022/12/08 03:03:08;;;;;;;;;;;;;;;-9.77;75.32;100262.91;5080100;28;20441;-68
2022/12/08 03:05:39;;;;;;;;;;;;;;;-9.76;75.32;100238.94;5080841;28;19928;-68
2022/12/08 03:08:11;;;;;;;;;;;;;;;-9.70;75.24;100238.41;5083492;28;20025;-68
2022/12/08 03:10:40;;;;;;;;;;;;;;;-9.70;75.12;100245.50;5082107;28;19932;-68
2022/12/08 03:13:08;;;;;;;;;;;;;;;-9.69;74.61;100245.38;5066051;28;19972;-68
2022/12/08 03:15:36;;;;;;;;;;;;;;;-9.65;74.73;100243.31;5084562;28;19934;-68
2022/12/08 03:18:02;;;;;;;;;;;;;;;-9.62;75.07;100242.19;5080409;28;19928;-68
2022/12/08 03:20:28;;;;;;;;;;;;;;;-9.59;74.62;100245.44;5097980;28;19931;-69
2022/12/08 03:22:57;;;;;;;;;;;;;;;-9.62;74.81;100240.41;5086961;28;20431;-68
2022/12/08 03:25:29;;;;;;;;;;;;;;;-9.61;74.35;100242.06;5081937;28;19932;-69
2022/12/08 03:27:55;;;;;;;;;;;;;;;-9.62;74.84;100236.91;5077757;28;19943;-69
2022/12/08 03:30:21;;;;;;;;;;;;;;;-9.61;74.59;100228.84;5085080;28;20402;-68
2022/12/08 03:32:50;;;;;;;;;;;;;;;-9.63;74.44;100220.19;5101147;28;19935;-69
2022/12/08 03:35:18;;;;;;;;;;;;;;;-9.67;74.67;100234.69;5085402;28;19928;-68
2022/12/08 03:37:44;;;;;;;;;;;;;;;-9.71;75.24;100233.25;5083063;28;19928;-68
2022/12/08 03:40:11;;;;;;;;;;;;;;;-9.71;75.23;100222.66;5065953;28;19928;-69
2022/12/08 03:42:39;;;;;;;;;;;;;;;-9.72;75.32;100232.41;5104321;28;20350;-69
2022/12/08 03:45:06;;;;;;;;;;;;;;;-9.74;76.03;100221.13;5106213;27;19934;-69
2022/12/08 03:47:31;;;;;;;;;;;;;;;-9.69;75.87;100215.41;5084799;28;19928;-68
2022/12/08 03:49:57;;;;;;;;;;;;;;;-9.64;75.56;100213.22;5084166;28;19928;-69
2022/12/08 03:52:23;;;;;;;;;;;;;;;-9.62;75.26;100232.47;5096007;28;19996;-68
2022/12/08 03:54:48;;;;;;;;;;;;;;;-9.64;75.02;100228.25;5089434;28;19928;-68
2022/12/08 03:57:14;;;;;;;;;;;;;;;-9.65;75.13;100223.94;5084095;28;19932;-68
2022/12/08 03:59:41;;;;;;;;;;;;;;;-9.71;76.16;100220.84;5085326;28;19927;-69
2022/12/08 04:02:07;;;;;;;;;;;;;;;-9.71;76.27;100214.72;5089367;28;19934;-68
2022/12/08 04:04:33;;;;;;;;;;;;;;;-9.75;77.23;100216.81;5104878;28;19928;-69
2022/12/08 04:06:59;;;;;;;;;;;;;;;-9.78;77.31;100218.88;5087257;28;19940;-68
2022/12/08 04:09:25;;;;;;;;;;;;;;;-9.79;77.48;100203.97;5083034;28;19935;-68
2022/12/08 04:11:50;;;;;;;;;;;;;;;-9.79;77.37;100206.59;5084374;28;19935;-68
2022/12/08 04:14:16;;;;;;;;;;;;;;;-9.73;77.44;100200.78;5102331;28;19927;-68
2022/12/08 04:16:43;;;;;;;;;;;;;;;-9.69;77.98;100196.88;5107572;28;19928;-68
2022/12/08 04:19:09;;;;;;;;;;;;;;;-9.70;78.10;100208.44;5105823;28;19950;-68
2022/12/08 04:21:35;;;;;;;;;;;;;;;-9.68;78.40;100198.56;5103077;28;19928;-68
2022/12/08 04:24:01;;;;;;;;;;;;;;;-9.68;78.26;100207.34;5092651;28;19928;-68
2022/12/08 04:26:27;;;;;;;;;;;;;;;-9.67;79.00;100208.19;5106044;28;19944;-68
2022/12/08 04:28:52;;;;;;;;;;;;;;;-9.68;79.02;100198.56;5106286;28;19927;-68
2022/12/08 04:31:18;;;;;;;;;;;;;;;-9.65;79.37;100198.31;5086677;28;19934;-68
2022/12/08 04:33:45;;;;;;;;;;;;;;;-9.59;79.16;100207.53;5085156;28;20319;-69
2022/12/08 04:36:11;;;;;;;;;;;;;;;-9.54;79.76;100213.25;5069674;28;20034;-68
2022/12/08 04:38:37;;;;;;;;;;;;;;;-9.58;79.44;100219.81;5068318;28;19940;-68
2022/12/08 04:41:03;;;;;;;;;;;;;;;-9.64;79.84;100205.28;5065566;28;19983;-68
2022/12/08 04:43:28;;;;;;;;;;;;;;;-9.68;80.22;100207.34;5064062;28;19928;-68
2022/12/08 04:45:54;;;;;;;;;;;;;;;-9.75;80.36;100203.56;5078215;28;19934;-68
2022/12/08 04:48:20;;;;;;;;;;;;;;;-9.76;80.69;100208.97;5085137;28;19981;-68
2022/12/08 04:50:47;;;;;;;;;;;;;;;-9.78;80.74;100205.63;5081985;28;19928;-68
2022/12/08 04:53:13;;;;;;;;;;;;;;;-9.77;80.88;100204.66;5081714;28;19928;-68
2022/12/08 04:55:39;;;;;;;;;;;;;;;-9.71;81.49;100210.28;5086113;28;20063;-68
2022/12/08 04:58:05;;;;;;;;;;;;;;;-9.66;81.33;100201.94;5104829;28;19951;-69
2022/12/08 05:00:30;;;;;;;;;;;;;;;-9.66;81.42;100199.28;5105015;28;19947;-69
2022/12/08 05:02:56;;;;;;;;;;;;;;;-9.63;81.08;100206.94;5069419;28;19954;-68
2022/12/08 05:05:22;;;;;;;;;;;;;;;-9.67;80.93;100205.56;5085888;28;20326;-68
2022/12/08 05:07:49;;;;;;;;;;;;;;;-9.68;80.64;100210.00;5101017;28;19984;-68
2022/12/08 05:10:15;;;;;;;;;;;;;;;-9.69;80.83;100203.03;5101850;28;20474;-69
2022/12/08 05:12:40;;;;;;;;;;;;;;;-9.72;81.45;100192.72;5105458;28;20480;-68
2022/12/08 05:15:06;;;;;;;;;;;;;;;-9.73;81.90;100204.28;5086130;28;20442;-65
2022/12/08 05:17:33;;;;;;;;;;;;;;;-9.74;82.15;100194.66;5089726;28;19975;-66
2022/12/08 05:19:59;;;;;;;;;;;;;;;-9.70;81.74;100185.47;5095206;28;20309;-69
2022/12/08 05:22:25;;;;;;;;;;;;;;;-9.65;82.19;100184.22;5079518;28;20307;-69
2022/12/08 05:24:52;;;;;;;;;;;;;;;-9.63;81.65;100182.28;5068160;28;19928;-69
2022/12/08 05:27:17;;;;;;;;;;;;;;;-9.66;81.48;100180.75;5075970;28;20361;-70
2022/12/08 05:29:43;;;;;;;;;;;;;;;-9.77;81.26;100178.19;5057585;28;19928;-68
2022/12/08 05:32:09;;;;;;;;;;;;;;;-9.66;81.36;100186.03;5084776;28;20485;-69
2022/12/08 05:34:35;;;;;;;;;;;;;;;-9.65;81.27;100187.72;5076414;28;19928;-68
2022/12/08 05:37:01;;;;;;;;;;;;;;;-9.70;80.48;100184.63;5070331;28;19950;-69
2022/12/08 05:39:27;;;;;;;;;;;;;;;-9.70;80.55;100179.31;5080501;28;20102;-68
2022/12/08 05:41:54;;;;;;;;;;;;;;;-9.70;80.59;100184.63;5058108;28;19936;-69
2022/12/08 05:44:19;;;;;;;;;;;;;;;-9.68;80.52;100185.31;5091218;28;20426;-69
2022/12/08 05:46:45;;;;;;;;;;;;;;;-9.68;79.99;100177.38;5072751;28;19928;-68
2022/12/08 05:49:11;;;;;;;;;;;;;;;-9.68;79.56;100182.66;5064202;28;20372;-70
2022/12/08 05:51:37;;;;;;;;;;;;;;;-9.66;79.43;100188.69;5056093;28;19981;-69
2022/12/08 05:54:03;;;;;;;;;;;;;;;-9.64;79.07;100183.25;5076290;28;19933;-69
2022/12/08 05:56:28;;;;;;;;;;;;;;;-9.66;78.92;100180.75;5087636;28;20435;-68
2022/12/08 05:58:55;;;;;;;;;;;;;;;-9.66;78.37;100179.91;5106135;28;19934;-69
2022/12/08 06:01:22;;;;;;;;;;;;;;;-9.68;78.36;100194.09;5105742;28;19934;-69
2022/12/08 06:03:48;;;;;;;;;;;;;;;-9.64;78.20;100184.09;5104083;28;19931;-69
2022/12/08 06:06:14;;;;;;;;;;;;;;;-9.70;78.44;100185.47;5103273;28;20425;-69
2022/12/08 06:08:39;;;;;;;;;;;;;;;-9.64;78.31;100197.34;5104834;28;19934;-69
2022/12/08 06:11:05;;;;;;;;;;;;;;;-9.63;77.84;100192.88;5072511;28;19936;-69
2022/12/08 06:13:31;;;;;;;;;;;;;;;-9.60;78.49;100201.38;5085387;28;20018;-69
2022/12/08 06:16:03;;;;;;;;;;;;;;;-9.64;79.01;100196.47;5083902;28;19992;-69
2022/12/08 06:18:29;;;;;;;;;;;;;;;-9.66;79.83;100180.75;5060554;28;19939;-69
2022/12/08 06:21:00;;;;;;;;;;;;;;;-9.67;80.01;100184.38;5074963;28;19928;-68
2022/12/08 06:23:26;;;;;;;;;;;;;;;-9.69;79.94;100184.50;5083325;28;19928;-69
2022/12/08 06:25:51;;;;;;;;;;;;;;;-9.68;79.97;100199.41;5088426;28;19928;-69
2022/12/08 06:28:17;;;;;;;;;;;;;;;-9.68;79.68;100185.31;5084427;28;19965;-69
2022/12/08 06:30:43;;;;;;;;;;;;;;;-9.64;79.64;100183.25;5088354;28;19981;-68
2022/12/08 06:33:10;;;;;;;;;;;;;;;-9.80;80.81;100173.16;5082629;28;20399;-69
2022/12/08 06:35:36;;;;;;;;;;;;;;;-9.74;80.86;100192.00;5084463;28;20069;-68
2022/12/08 06:38:02;;;;;;;;;;;;;;;-9.74;81.53;100177.91;5091454;28;19928;-68
2022/12/08 06:40:27;;;;;;;;;;;;;;;-9.70;81.78;100181.97;5083577;28;19938;-64
2022/12/08 06:42:53;;;;;;;;;;;;;;;-9.71;81.75;100170.56;5065451;28;20039;-65
2022/12/08 06:45:19;;;;;;;;;;;;;;;-9.69;81.28;100173.06;5086272;28;20049;-65
2022/12/08 06:47:44;;;;;;;;;;;;;;;-9.68;81.69;100194.09;5084134;28;19963;-65
2022/12/08 06:50:12;;;;;;;;;;;;;;;-9.64;81.58;100172.66;5083919;28;20370;-64
2022/12/08 06:52:39;;;;;;;;;;;;;;;-9.50;81.74;100166.16;5085660;28;20365;-65
2022/12/08 06:55:06;;;;;;;;;;;;;;;-9.43;81.41;100178.72;5087224;28;19928;-69
2022/12/08 06:57:31;;;;;;;;;;;;;;;-9.44;81.20;100174.41;5082682;28;19928;-69
2022/12/08 06:59:57;;;;;;;;;;;;;;;-9.42;80.54;100182.19;5096724;28;19953;-68
2022/12/08 07:02:23;;;;;;;;;;;;;;;-9.50;79.82;100188.19;5096974;28;19928;-70
2022/12/08 07:04:49;;;;;;;;;;;;;;;-9.55;79.44;100180.63;5084199;28;20002;-68
2022/12/08 07:07:17;;;;;;;;;;;;;;;-9.51;79.86;100172.44;5083211;28;19928;-69
2022/12/08 07:09:43;;;;;;;;;;;;;;;-9.44;80.16;100181.50;5099045;28;19928;-69
2022/12/08 07:12:09;;;;;;;;;;;;;;;-9.35;80.11;100186.00;5085519;28;20287;-68
2022/12/08 07:14:34;;;;;;;;;;;;;;;-9.26;79.74;100174.56;5091679;28;20296;-68
2022/12/08 07:17:01;;;;;;;;;;;;;;;-9.31;79.01;100179.44;5087817;28;19928;-69
2022/12/08 07:19:26;;;;;;;;;;;;;;;-9.35;78.72;100174.56;5088695;28;20651;-68
2022/12/08 07:21:52;;;;;;;;;;;;;;;-9.34;78.62;100166.50;5093145;28;19931;-69
2022/12/08 07:24:19;;;;;;;;;;;;;;;-9.34;77.68;100162.97;5095513;28;19951;-68
2022/12/08 07:26:45;;;;;;;;;;;;;;;-9.30;77.70;100182.91;5097774;28;19927;-65
2022/12/08 07:29:10;;;;;;;;;;;;;;;-9.23;77.79;100178.78;5100879;28;20371;-68
2022/12/08 07:31:36;;;;;;;;;;;;;;;-9.19;77.20;100177.50;5106175;28;20385;-68
2022/12/08 07:34:02;;;;;;;;;;;;;;;-9.19;76.67;100184.63;5106947;28;20467;-69
2022/12/08 07:36:28;;;;;;;;;;;;;;;-9.24;76.30;100179.75;5107737;28;19938;-69
2022/12/08 07:38:53;;;;;;;;;;;;;;;-9.18;76.73;100188.97;5088011;28;19932;-69
2022/12/08 07:41:21;;;;;;;;;;;;;;;-9.15;76.51;100173.59;5094616;28;19927;-69
2022/12/08 07:43:47;;;;;;;;;;;;;;;-9.15;76.33;100186.03;5105826;28;20147;-69
2022/12/08 07:46:13;;;;;;;;;;;;;;;-9.19;76.08;100179.34;5090491;28;19970;-69
2022/12/08 07:48:39;;;;;;;;;;;;;;;-9.19;76.46;100182.00;5085402;28;19928;-65
2022/12/08 07:51:05;;;;;;;;;;;;;;;-9.07;76.70;100164.97;5086003;28;19928;-64
2022/12/08 07:53:31;;;;;;;;;;;;;;;-8.92;76.35;100153.97;5084895;28;20303;-65
2022/12/08 07:55:57;;;;;;;;;;;;;;;-8.87;75.50;100162.34;5092355;28;19927;-64
2022/12/08 07:58:25;;;;;;;;;;;;;;;-8.89;75.21;100159.84;5083802;28;19939;-66
2022/12/08 08:00:51;;;;;;;;;;;;;;;-8.85;74.94;100149.78;5088343;28;19928;-65
2022/12/08 08:03:16;;;;;;;;;;;;;;;-8.91;74.51;100145.88;5095945;28;19981;-65
2022/12/08 08:05:48;;;;;;;;;;;;;;;-9.00;74.86;100147.56;5089133;28;19932;-65
2022/12/08 08:08:13;;;;;;;;;;;;;;;-9.04;75.10;100119.66;5088399;28;19932;-64
2022/12/08 08:10:39;;;;;;;;;;;;;;;-8.98;74.84;100142.94;5085891;28;19935;-64
2022/12/08 08:13:05;;;;;;;;;;;;;;;-8.92;74.72;100143.34;5088157;28;19928;-65
2022/12/08 08:15:32;;;;;;;;;;;;;;;-8.85;74.68;100142.66;5088446;28;19932;-64
2022/12/08 08:17:58;;;;;;;;;;;;;;;-8.69;74.42;100143.91;5087448;28;20304;-64
2022/12/08 08:20:23;;;;;;;;;;;;;;;-8.72;73.39;100142.41;5087858;28;19935;-65
2022/12/08 08:22:50;;;;;;;;;;;;;;;-8.79;73.82;100130.66;5088705;28;20328;-65
2022/12/08 08:25:16;;;;;;;;;;;;;;;-8.70;74.13;100136.94;5091713;28;19928;-65
2022/12/08 08:27:42;;;;;;;;;;;;;;;-8.66;73.39;100119.78;5071040;28;20348;-65
2022/12/08 08:30:09;;;;;;;;;;;;;;;-8.66;73.79;100148.09;5102408;28;19935;-65
2022/12/08 08:32:37;;;;;;;;;;;;;;;-8.75;74.97;100132.03;5087652;28;19928;-65
2022/12/08 08:35:03;;;;;;;;;;;;;;;-8.80;74.90;100136.94;5089109;28;20034;-65
2022/12/08 08:37:29;;;;;;;;;;;;;;;-8.69;75.60;100125.34;5087744;28;19935;-64
2022/12/08 08:39:55;;;;;;;;;;;;;;;-8.64;74.67;100133.72;5068191;28;19934;-65
2022/12/08 08:42:21;;;;;;;;;;;;;;;-8.64;74.12;100125.78;5085320;28;20173;-64
2022/12/08 08:44:47;;;;;;;;;;;;;;;-8.68;74.81;100140.28;5087616;28;20433;-65
2022/12/08 08:47:12;;;;;;;;;;;;;;;-8.59;74.19;100135.94;5086500;28;19928;-65
2022/12/08 08:49:40;;;;;;;;;;;;;;;-8.58;74.14;100129.69;5087997;28;19928;-65
2022/12/08 08:52:06;;;;;;;;;;;;;;;-8.56;73.37;100133.84;5091536;28;20448;-65
2022/12/08 08:54:32;;;;;;;;;;;;;;;-8.57;73.38;100136.66;5085960;28;20403;-65
2022/12/08 08:56:58;;;;;;;;;;;;;;;-8.55;73.27;100126.75;5086486;28;19955;-65
2022/12/08 08:59:24;;;;;;;;;;;;;;;-8.55;72.60;100132.03;5086964;28;19928;-65
2022/12/08 09:01:50;;;;;;;;;;;;;;;-8.51;72.82;100125.47;5083467;28;19934;-65
2022/12/08 09:04:15;;;;;;;;;;;;;;;-8.41;72.48;100126.28;5095381;28;19927;-65
2022/12/08 09:06:44;;;;;;;;;;;;;;;-8.43;72.48;100117.63;5064943;28;20396;-64
2022/12/08 09:09:09;;;;;;;;;;;;;;;-8.35;72.25;100126.66;5085045;28;19972;-65
2022/12/08 09:11:35;;;;;;;;;;;;;;;-8.30;71.97;100129.72;5085950;28;19986;-65
2022/12/08 09:14:01;;;;;;;;;;;;;;;-8.32;72.06;100123.72;5069093;28;19928;-64
2022/12/08 09:16:27;;;;;;;;;;;;;;;-8.38;72.55;100130.44;5068514;28;19932;-65
2022/12/08 09:18:53;;;;;;;;;;;;;;;-8.42;72.79;100129.06;5087490;28;20027;-65
2022/12/08 09:21:21;;;;;;;;;;;;;;;-8.43;73.13;100138.00;5088675;28;19981;-65
2022/12/08 09:23:48;;;;;;;;;;;;;;;-8.42;73.49;100137.84;5086498;28;20185;-65
2022/12/08 09:26:14;;;;;;;;;;;;;;;-8.37;73.22;100125.97;5090807;28;20417;-65
2022/12/08 09:28:45;;;;;;;;;;;;;;;-8.36;73.21;100122.34;5086524;28;20027;-64
2022/12/08 09:31:11;;;;;;;;;;;;;;;-8.34;73.36;100133.63;5087283;28;20026;-65
2022/12/08 09:33:37;;;;;;;;;;;;;;;-8.34;73.05;100118.56;5086933;28;20039;-65
2022/12/08 09:36:05;;;;;;;;;;;;;;;-8.37;73.20;100124.13;5083945;28;20220;-65
2022/12/08 09:38:31;;;;;;;;;;;;;;;-8.40;73.95;100122.63;5080306;28;19928;-65
2022/12/08 09:40:59;;;;;;;;;;;;;;;-8.40;74.13;100122.63;5088434;28;20422;-65
2022/12/08 09:43:40;;;;;;;;;;;;;;;-8.43;76.15;100116.75;5085812;28;19992;-65
2022/12/08 09:46:07;;;;;;;;;;;;;;;-8.47;76.88;100116.22;5087277;28;19928;-65
2022/12/08 09:48:34;;;;;;;;;;;;;;;-8.43;77.69;100116.75;5086897;28;19974;-65
2022/12/08 09:51:01;;;;;;;;;;;;;;;-8.37;77.45;100115.38;5094902;28;19934;-65
2022/12/08 09:53:28;;;;;;;;;;;;;;;-8.46;77.69;100099.31;5088636;28;19935;-64
2022/12/08 09:55:55;;;;;;;;;;;;;;;-8.49;78.20;100104.91;5092816;28;20380;-65
2022/12/08 09:58:26;;;;;;;;;;;;;;;-8.47;78.64;100102.94;5083526;28;19935;-65
2022/12/08 10:00:52;;;;;;;;;;;;;;;-8.43;78.25;100100.84;5091989;28;19928;-65
2022/12/08 10:03:18;;;;;;;;;;;;;;;-8.64;78.07;100056.84;5088921;28;20399;-65
2022/12/08 10:05:48;;;;;;;;;;;;;;;-8.37;77.90;100099.44;5090695;28;19928;-65
2022/12/08 10:08:17;;;;;;;;;;;;;;;-8.30;78.23;100114.66;5084820;28;20405;-65
2022/12/08 10:10:46;;;;;;;;;;;;;;;-8.29;78.11;100100.41;5091319;28;19928;-65
2022/12/08 10:13:19;;;;;;;;;;;;;;;-8.20;78.15;100111.97;5085416;28;19960;-65
2022/12/08 10:15:52;;;;;;;;;;;;;;;-8.17;78.20;100105.53;5060358;28;19974;-65
2022/12/08 10:18:18;;;;;;;;;;;;;;;-8.19;78.35;100107.50;5083985;28;20735;-65
2022/12/08 10:20:46;;;;;;;;;;;;;;;-8.24;78.48;100105.28;5083116;28;20177;-65
2022/12/08 10:23:18;;;;;;;;;;;;;;;-8.26;78.83;100101.94;5084623;28;20018;-65
2022/12/08 10:25:46;;;;;;;;;;;;;;;-8.21;78.86;100104.97;5086254;28;19928;-65
2022/12/08 10:28:12;;;;;;;;;;;;;;;-8.11;78.58;100104.94;5061722;28;19928;-65
2022/12/08 10:30:38;;;;;;;;;;;;;;;-8.05;77.59;100104.34;5068346;28;19977;-64
2022/12/08 10:33:08;;;;;;;;;;;;;;;-8.06;76.42;100110.63;5086305;28;19993;-65
2022/12/08 10:35:41;;;;;;;;;;;;;;;-8.08;76.03;100095.84;5085236;28;20529;-65
2022/12/08 10:38:15;;;;;;;;;;;;;;;-8.17;75.62;100110.84;5086493;28;20320;-65
2022/12/08 10:40:42;;;;;;;;;;;;;;;-8.17;75.89;100111.66;5066954;28;19932;-68
2022/12/08 10:43:13;;;;;;;;;;;;;;;-8.13;75.77;100107.72;5084399;28;20023;-69
2022/12/08 10:45:42;;;;;;;;;;;;;;;-8.10;75.62;100116.41;5094073;28;20050;-69
2022/12/08 10:48:14;;;;;;;;;;;;;;;-8.16;77.58;100115.97;5077779;28;20034;-69
2022/12/08 10:50:41;;;;;;;;;;;;;;;-8.16;78.67;100117.81;5089454;28;20035;-69
2022/12/08 10:53:11;;;;;;;;;;;;;;;-8.08;79.36;100115.25;5090631;28;20042;-69
2022/12/08 10:55:39;;;;;;;;;;;;;;;-8.08;81.42;100117.09;5084372;28;19929;-69
2022/12/08 10:58:04;;;;;;;;;;;;;;;-8.04;81.70;100126.44;5084580;28;19928;-69
2022/12/08 11:00:30;;;;;;;;;;;;;;;-8.12;81.95;100116.53;5083254;28;20313;-69
2022/12/08 11:02:57;;;;;;;;;;;;;;;-8.10;82.12;100117.22;5088706;28;19927;-69
2022/12/08 11:05:27;;;;;;;;;;;;;;;-8.15;80.92;100120.31;5087439;28;20058;-69
2022/12/08 11:07:53;;;;;;;;;;;;;;;-8.15;81.15;100116.84;5086442;28;19977;-69
2022/12/08 11:10:25;;;;;;;;;;;;;;;-8.16;81.08;100105.38;5090554;28;19935;-69
2022/12/08 11:12:51;;;;;;;;;;;;;;;-8.16;81.01;100105.38;5084978;28;19927;-69
2022/12/08 11:15:17;;;;;;;;;;;;;;;-8.12;80.44;100103.28;5090250;28;20337;-69
2022/12/08 11:17:46;;;;;;;;;;;;;;;-8.15;80.46;100100.91;5091663;28;19969;-68
2022/12/08 11:20:19;;;;;;;;;;;;;;;-8.14;80.33;100098.09;5088368;28;20234;-69
2022/12/08 11:22:50;;;;;;;;;;;;;;;-8.05;80.09;100100.88;5089137;28;19928;-69
2022/12/08 11:25:17;;;;;;;;;;;;;;;-8.04;79.37;100105.19;5085675;28;19928;-69
2022/12/08 11:27:44;;;;;;;;;;;;;;;-8.07;78.95;100097.53;5086296;28;19993;-69
2022/12/08 11:30:13;;;;;;;;;;;;;;;-8.08;79.04;100093.19;5090021;28;19935;-69
2022/12/08 11:32:41;;;;;;;;;;;;;;;-8.02;79.02;100092.59;5089433;28;19950;-70
2022/12/08 11:35:08;;;;;;;;;;;;;;;-7.98;78.34;100086.00;5088322;28;19978;-69
2022/12/08 11:37:37;;;;;;;;;;;;;;;-7.98;78.02;100086.88;5088880;28;19935;-69
2022/12/08 11:40:06;;;;;;;;;;;;;;;-7.94;78.20;100086.56;5087820;28;19927;-69
2022/12/08 11:42:34;;;;;;;;;;;;;;;-7.93;77.78;100093.53;5090179;28;19928;-69
2022/12/08 11:45:03;;;;;;;;;;;;;;;-7.98;77.80;100088.66;5091581;28;19970;-69
2022/12/08 11:47:34;;;;;;;;;;;;;;;-7.99;78.44;100085.19;5088168;28;19934;-69
2022/12/08 11:50:02;;;;;;;;;;;;;;;-8.02;78.45;100090.81;5082982;28;20405;-69
2022/12/08 11:52:29;;;;;;;;;;;;;;;-8.04;78.92;100081.31;5068936;28;19932;-70
2022/12/08 11:54:58;;;;;;;;;;;;;;;-8.05;79.13;100091.06;5078379;28;19928;-69
2022/12/08 11:57:28;;;;;;;;;;;;;;;-8.04;79.42;100090.13;5091928;28;19963;-69
2022/12/08 11:59:55;;;;;;;;;;;;;;;-8.01;79.27;100097.78;5091951;28;20054;-69
2022/12/08 12:02:23;;;;;;;;;;;;;;;-7.99;79.11;100089.66;5097240;28;19938;-69
2022/12/08 12:04:51;;;;;;;;;;;;;;;-7.95;79.31;100083.09;5075139;28;19953;-69
2022/12/08 12:07:29;;;;;;;;;;;;;;;-7.98;79.05;100084.22;5102799;28;20030;-69
2022/12/08 12:10:16;;;;;;;;;;;;;;;-7.91;79.25;100088.91;5095277;28;19981;-69
2022/12/08 12:12:51;;;;;;;;;;;;;;;-7.89;79.44;100093.09;5086535;28;20142;-69
2022/12/08 12:15:26;;;;;;;;;;;;;;;-7.84;79.91;100106.78;5085057;28;19978;-69
2022/12/08 12:17:55;;;;;;;;;;;;;;;-7.81;79.68;100103.00;5080753;28;19934;-69
2022/12/08 12:20:24;;;;;;;;;;;;;;;-7.80;79.62;100109.97;5064501;28;20046;-69
2022/12/08 12:22:54;;;;;;;;;;;;;;;-7.77;79.59;100107.00;5071676;28;20040;-69
2022/12/08 12:25:21;;;;;;;;;;;;;;;-7.70;79.62;100113.44;5077425;28;19928;-69
2022/12/08 12:27:49;;;;;;;;;;;;;;;-7.62;79.49;100112.69;5085612;28;19928;-69
2022/12/08 12:30:20;;;;;;;;;;;;;;;-7.55;79.33;100103.13;5089573;28;20406;-69
2022/12/08 12:32:47;;;;;;;;;;;;;;;-7.53;78.86;100104.78;5089106;28;19928;-69
2022/12/08 12:35:14;;;;;;;;;;;;;;;-7.56;78.25;100113.91;5092005;28;20299;-69
2022/12/08 12:37:41;;;;;;;;;;;;;;;-7.58;78.53;100110.53;5071933;28;19928;-69
2022/12/08 12:40:15;;;;;;;;;;;;;;;-7.62;78.19;100110.03;5066790;28;20023;-69
2022/12/08 12:42:42;;;;;;;;;;;;;;;-7.64;77.97;100116.47;5063879;28;19929;-69